Time;durP1;ratioP1;P1;durP2;ratioP2;P2;SDS_P1;SDS_P2;PMS_P1;PMS_P2;Temp;Humidity;BMP_temperature;BMP_pressure;BME280_temperature;BME280_humidity;BME280_pressure;Samples;Min_cycle;Max_cycle;Signal;HPM_P1;HPM_P2
2022/12/24 00:00:34;;;;;;;6.50;2.53;;;11.60;99.90;;;;;;10414759;28;20245;-69
2022/12/24 00:05:36;;;;;;;8.40;2.33;;;11.60;99.90;;;;;;10428729;28;20272;-70
2022/12/24 00:10:37;;;;;;;9.87;2.63;;;11.50;99.90;;;;;;10416550;28;20683;-70
2022/12/24 00:15:37;;;;;;;11.00;2.73;;;11.40;99.90;;;;;;10423259;28;20314;-69
2022/12/24 00:20:38;;;;;;;11.77;2.60;;;11.30;99.90;;;;;;10411139;28;20602;-69
2022/12/24 00:25:39;;;;;;;9.97;2.40;;;11.20;99.90;;;;;;10425985;28;20217;-69
2022/12/24 00:30:40;;;;;;;9.17;2.07;;;11.10;99.90;;;;;;10428942;28;20311;-70
2022/12/24 00:35:41;;;;;;;8.27;2.30;;;11.10;99.90;;;;;;10425872;28;20763;-69
2022/12/24 00:40:42;;;;;;;12.47;2.80;;;11.00;99.90;;;;;;10430821;28;20332;-70
2022/12/24 00:45:42;;;;;;;11.20;2.70;;;11.00;99.90;;;;;;10433686;28;20220;-70
2022/12/24 00:50:43;;;;;;;12.70;2.60;;;11.00;99.90;;;;;;10451378;28;20241;-70
2022/12/24 00:55:43;;;;;;;10.63;2.60;;;11.10;99.90;;;;;;10438454;28;20251;-69
2022/12/24 01:00:44;;;;;;;11.83;2.63;;;11.10;99.90;;;;;;10438408;28;20232;-69
2022/12/24 01:05:45;;;;;;;10.53;2.50;;;11.20;99.90;;;;;;10425679;28;20217;-70
2022/12/24 01:10:45;;;;;;;11.13;2.63;;;11.30;99.90;;;;;;10415034;28;20649;-69
2022/12/24 01:15:49;;;;;;;10.37;2.70;;;11.30;99.90;;;;;;10437677;28;20218;-69
2022/12/24 01:21:00;;;;;;;11.30;3.00;;;11.30;99.90;;;;;;10436202;28;20727;-69
2022/12/24 01:26:02;;;;;;;10.27;2.50;;;11.30;99.90;;;;;;10418819;28;20292;-69
2022/12/24 01:31:14;;;;;;;10.10;2.60;;;11.30;99.90;;;;;;10437579;28;20213;-68
2022/12/24 01:36:14;;;;;;;11.70;2.73;;;11.30;99.90;;;;;;10435925;28;20356;-69
2022/12/24 01:46:37;;;;;;;9.30;2.50;;;11.30;99.90;;;;;;10435979;28;20257;-70
2022/12/24 01:51:41;;;;;;;11.27;2.97;;;11.30;99.90;;;;;;10434162;28;20256;-69
2022/12/24 01:56:49;;;;;;;9.63;2.40;;;11.20;99.90;;;;;;10450597;28;20219;-69
2022/12/24 02:01:52;;;;;;;13.87;3.10;;;11.10;99.90;;;;;;10431002;28;20265;-69
2022/12/24 02:06:52;;;;;;;16.00;3.20;;;10.90;99.90;;;;;;10413201;28;20267;-69
2022/12/24 02:11:53;;;;;;;16.80;3.37;;;10.80;99.90;;;;;;10430878;28;20710;-69
2022/12/24 02:17:12;;;;;;;10.60;2.53;;;10.70;99.90;;;;;;10430131;28;20217;-69
2022/12/24 02:22:16;;;;;;;6.93;2.23;;;10.60;99.90;;;;;;10433116;28;20257;-69
2022/12/24 02:27:24;;;;;;;12.57;2.67;;;10.50;99.90;;;;;;10408711;28;20273;-70
2022/12/24 02:32:54;;;;;;;10.93;2.53;;;10.60;99.90;;;;;;10415164;28;20221;-70
2022/12/24 02:38:12;;;;;;;11.00;2.83;;;10.60;99.90;;;;;;10425447;28;20229;-70
2022/12/24 02:43:19;;;;;;;13.07;2.93;;;10.70;99.90;;;;;;10414554;28;20283;-69
2022/12/24 02:48:23;;;;;;;10.93;2.77;;;10.80;99.90;;;;;;10435800;28;20273;-70
2022/12/24 02:53:23;;;;;;;16.10;3.00;;;10.80;99.90;;;;;;10433429;28;20209;-69
2022/12/24 02:58:29;;;;;;;11.77;2.67;;;10.90;99.90;;;;;;10426179;28;20217;-69
2022/12/24 03:03:43;;;;;;;10.37;2.27;;;10.90;99.90;;;;;;10433895;28;20241;-68
2022/12/24 03:08:58;;;;;;;9.67;2.80;;;10.90;99.90;;;;;;10430276;28;20226;-69
2022/12/24 03:14:00;;;;;;;12.50;2.53;;;11.00;99.90;;;;;;10433210;28;20677;-69
2022/12/24 03:19:01;;;;;;;12.37;2.63;;;11.10;99.90;;;;;;10428905;28;20290;-69
2022/12/24 03:24:04;;;;;;;10.53;2.53;;;11.10;99.90;;;;;;10431845;28;20242;-70
2022/12/24 03:29:07;;;;;;;11.40;2.80;;;11.10;99.90;;;;;;10425752;28;20305;-69
2022/12/24 03:34:08;;;;;;;16.80;3.20;;;11.10;99.90;;;;;;10429634;28;20904;-69
2022/12/24 03:39:09;;;;;;;12.77;2.00;;;11.10;99.90;;;;;;10419822;28;20218;-69
2022/12/24 03:44:10;;;;;;;14.97;2.90;;;11.10;99.90;;;;;;10424610;28;20268;-70
2022/12/24 03:49:11;;;;;;;11.97;2.67;;;11.20;99.90;;;;;;10428518;28;20312;-70
2022/12/24 03:54:11;;;;;;;9.43;2.30;;;11.20;99.90;;;;;;10434619;28;20247;-70
2022/12/24 03:59:12;;;;;;;12.40;2.90;;;11.10;99.90;;;;;;10429686;28;20219;-70
2022/12/24 04:04:12;;;;;;;12.60;3.23;;;11.20;99.90;;;;;;10424293;28;20235;-69
2022/12/24 04:09:13;;;;;;;12.37;2.83;;;11.10;99.90;;;;;;10429976;28;20221;-68
2022/12/24 04:14:13;;;;;;;11.23;2.57;;;11.10;99.90;;;;;;10409907;28;20874;-68
2022/12/24 04:19:14;;;;;;;9.60;2.43;;;11.10;99.90;;;;;;10437267;28;20220;-68
2022/12/24 04:24:15;;;;;;;12.80;2.60;;;11.10;99.90;;;;;;10432222;28;20237;-68
2022/12/24 04:29:15;;;;;;;12.63;3.17;;;11.10;99.90;;;;;;10438943;28;20217;-69
2022/12/24 04:34:16;;;;;;;10.17;2.93;;;11.10;99.90;;;;;;10431996;28;20222;-69
2022/12/24 04:39:16;;;;;;;9.03;2.70;;;11.10;99.90;;;;;;10438296;28;20304;-69
2022/12/24 04:44:17;;;;;;;14.23;3.00;;;11.10;99.90;;;;;;10440022;28;20653;-69
2022/12/24 04:49:17;;;;;;;11.77;3.00;;;11.10;99.90;;;;;;10437941;28;20226;-68
2022/12/24 04:54:18;;;;;;;11.60;3.07;;;11.00;99.90;;;;;;10429963;28;20213;-69
2022/12/24 04:59:18;;;;;;;9.50;2.50;;;11.00;99.90;;;;;;10443898;28;20353;-69
2022/12/24 05:04:19;;;;;;;15.67;3.10;;;10.90;99.90;;;;;;10438538;28;20228;-70
2022/12/24 05:09:19;;;;;;;10.40;3.20;;;10.80;99.90;;;;;;10412214;28;20233;-69
2022/12/24 05:14:20;;;;;;;13.13;2.90;;;10.80;99.90;;;;;;10419343;28;20226;-69
2022/12/24 05:19:20;;;;;;;11.87;2.70;;;10.80;99.90;;;;;;10435020;28;20210;-69
2022/12/24 05:29:40;;;;;;;17.73;3.03;;;10.80;99.90;;;;;;10436274;28;20222;-69
2022/12/24 05:34:41;;;;;;;18.80;3.20;;;10.80;99.90;;;;;;10434486;28;20763;-70
2022/12/24 05:39:41;;;;;;;13.57;3.07;;;10.80;99.90;;;;;;10431089;28;20266;-69
2022/12/24 05:44:42;;;;;;;14.83;3.13;;;10.80;99.90;;;;;;10438856;28;20213;-69
2022/12/24 05:49:42;;;;;;;19.40;4.20;;;10.80;99.90;;;;;;10449836;28;20686;-70
2022/12/24 05:54:43;;;;;;;16.23;3.67;;;10.80;99.90;;;;;;10433725;28;20233;-70
2022/12/24 05:59:43;;;;;;;18.03;4.70;;;10.80;99.90;;;;;;10440095;28;20348;-70
2022/12/24 06:04:44;;;;;;;20.70;5.60;;;10.80;99.90;;;;;;10441168;28;20226;-70
2022/12/24 06:09:44;;;;;;;26.00;7.63;;;10.80;99.90;;;;;;10435571;28;20248;-70
2022/12/24 06:14:45;;;;;;;24.10;8.70;;;10.80;99.90;;;;;;10413693;28;20679;-69
2022/12/24 06:19:45;;;;;;;17.83;6.47;;;10.80;99.90;;;;;;10429096;28;20231;-69
2022/12/24 06:24:49;;;;;;;21.10;8.53;;;10.80;99.90;;;;;;10430981;28;20219;-69
2022/12/24 06:29:49;;;;;;;15.23;3.93;;;10.80;99.90;;;;;;10424334;28;20230;-69
2022/12/24 06:34:50;;;;;;;16.87;3.07;;;10.80;99.90;;;;;;10411968;28;20230;-68
2022/12/24 06:39:51;;;;;;;13.23;3.63;;;10.70;99.90;;;;;;10428591;28;20756;-69
2022/12/24 06:44:51;;;;;;;17.57;3.90;;;10.70;99.90;;;;;;10421424;28;20225;-68
2022/12/24 06:49:52;;;;;;;20.50;3.80;;;10.70;99.90;;;;;;10428862;28;20288;-69
2022/12/24 06:54:52;;;;;;;13.53;3.50;;;10.70;99.90;;;;;;10415707;28;20619;-68
2022/12/24 06:59:53;;;;;;;18.33;4.10;;;10.70;99.90;;;;;;10435506;28;20232;-69
2022/12/24 07:04:53;;;;;;;21.20;3.97;;;10.70;99.90;;;;;;10429086;28;20218;-69
2022/12/24 07:09:55;;;;;;;17.13;3.80;;;10.70;99.90;;;;;;10429156;28;20222;-70
2022/12/24 07:14:55;;;;;;;18.00;4.33;;;10.70;99.90;;;;;;10435001;28;20234;-70
2022/12/24 07:19:56;;;;;;;18.07;4.07;;;10.80;99.90;;;;;;10427175;28;20657;-68
2022/12/24 07:24:56;;;;;;;17.63;4.33;;;10.80;99.90;;;;;;10429502;28;20631;-68
2022/12/24 07:29:57;;;;;;;15.00;4.13;;;10.80;99.90;;;;;;10429381;28;20221;-68
2022/12/24 07:34:57;;;;;;;15.20;3.67;;;10.80;99.90;;;;;;10432729;28;20225;-69
2022/12/24 07:39:58;;;;;;;21.40;4.37;;;10.90;99.90;;;;;;10436491;28;20280;-70
2022/12/24 07:44:59;;;;;;;11.73;3.83;;;10.90;99.90;;;;;;10409952;28;20232;-69
2022/12/24 07:50:00;;;;;;;19.07;4.27;;;10.90;99.90;;;;;;10411172;28;20238;-69
2022/12/24 07:55:00;;;;;;;18.47;4.13;;;10.90;99.90;;;;;;10437016;28;20283;-68
2022/12/24 08:00:01;;;;;;;19.20;4.43;;;11.00;99.90;;;;;;10416746;28;20233;-70
2022/12/24 08:05:01;;;;;;;19.00;4.50;;;11.00;99.90;;;;;;10428236;28;20309;-70
2022/12/24 08:10:02;;;;;;;21.50;4.40;;;11.00;99.90;;;;;;10425774;28;20222;-69
2022/12/24 08:15:03;;;;;;;18.10;4.37;;;11.10;99.90;;;;;;10428540;28;20233;-70
2022/12/24 08:20:04;;;;;;;21.60;4.30;;;11.10;99.90;;;;;;10407733;28;20285;-69
2022/12/24 08:25:06;;;;;;;16.67;4.23;;;11.20;99.90;;;;;;10428576;28;20307;-69
2022/12/24 08:30:07;;;;;;;19.27;4.00;;;11.20;99.90;;;;;;10432088;28;20891;-68
2022/12/24 08:35:08;;;;;;;19.80;4.23;;;11.20;99.90;;;;;;10429581;28;20306;-68
2022/12/24 08:40:09;;;;;;;22.33;4.47;;;11.20;99.90;;;;;;10407018;28;20210;-69
2022/12/24 08:45:10;;;;;;;15.57;3.83;;;11.10;99.90;;;;;;10446308;28;20194;-69
2022/12/24 08:50:12;;;;;;;22.00;4.90;;;11.10;99.90;;;;;;10417795;28;20210;-68
2022/12/24 08:55:12;;;;;;;20.73;3.83;;;11.10;99.90;;;;;;10430896;28;20203;-68
2022/12/24 09:00:13;;;;;;;26.70;5.63;;;11.20;99.90;;;;;;10425305;28;20219;-69
2022/12/24 09:05:14;;;;;;;20.27;4.03;;;11.30;99.90;;;;;;10436408;28;20185;-70
2022/12/24 09:10:16;;;;;;;18.13;4.07;;;11.30;99.90;;;;;;10412611;28;20194;-70
2022/12/24 09:15:16;;;;;;;22.20;4.30;;;11.30;99.90;;;;;;10418718;28;20200;-70
2022/12/24 09:20:17;;;;;;;22.47;4.50;;;11.30;99.90;;;;;;10437890;28;20227;-70
2022/12/24 09:25:18;;;;;;;16.43;3.87;;;11.30;99.90;;;;;;10429668;28;20178;-70
2022/12/24 09:30:18;;;;;;;24.87;4.50;;;11.40;99.90;;;;;;10437159;28;20183;-69
2022/12/24 09:35:19;;;;;;;21.73;4.83;;;11.40;99.90;;;;;;10426087;28;20196;-69
2022/12/24 09:40:32;;;;;;;23.03;4.93;;;11.40;99.90;;;;;;10436235;28;20227;-69
2022/12/24 09:45:37;;;;;;;23.10;4.73;;;11.50;99.90;;;;;;10440599;28;20224;-70
2022/12/24 09:50:58;;;;;;;19.67;4.23;;;11.60;99.90;;;;;;10433921;28;20225;-70
2022/12/24 09:56:02;;;;;;;19.33;4.10;;;11.70;99.90;;;;;;10438601;28;20755;-69
2022/12/24 10:01:02;;;;;;;20.13;4.53;;;11.80;99.90;;;;;;10416790;28;20245;-69
2022/12/24 10:06:23;;;;;;;23.57;4.90;;;11.90;99.90;;;;;;10435776;28;20227;-70
2022/12/24 10:11:44;;;;;;;26.10;4.43;;;12.10;99.90;;;;;;10427051;28;20748;-70
2022/12/24 10:17:09;;;;;;;19.67;4.30;;;12.20;99.90;;;;;;10432300;28;20248;-69
2022/12/24 10:22:31;;;;;;;19.23;4.83;;;12.20;99.90;;;;;;10414754;28;20354;-69
2022/12/24 10:27:38;;;;;;;23.33;4.83;;;12.50;99.90;;;;;;10427485;28;20565;-69
2022/12/24 10:32:40;;;;;;;18.33;4.10;;;13.00;99.90;;;;;;10432144;28;20225;-70
2022/12/24 10:37:49;;;;;;;19.30;4.57;;;14.30;99.90;;;;;;10428562;28;20224;-70
2022/12/24 10:42:50;;;;;;;19.07;4.30;;;16.50;99.90;;;;;;10430442;28;20238;-70
2022/12/24 10:47:56;;;;;;;18.53;4.37;;;19.20;99.90;;;;;;10443800;28;20274;-70
2022/12/24 10:53:13;;;;;;;15.70;4.13;;;19.20;99.90;;;;;;10410642;28;20235;-70
2022/12/24 10:58:18;;;;;;;17.87;4.27;;;18.60;99.90;;;;;;10429807;28;20596;-69
2022/12/24 11:03:21;;;;;;;20.13;4.73;;;16.90;99.90;;;;;;10432448;28;20514;-70
2022/12/24 11:08:22;;;;;;;18.47;3.93;;;15.70;99.90;;;;;;10424891;28;20223;-70
2022/12/24 11:13:27;;;;;;;23.47;4.60;;;15.10;99.90;;;;;;10424662;28;20595;-69
2022/12/24 11:18:28;;;;;;;23.70;5.10;;;14.60;99.90;;;;;;10424952;28;20220;-69
2022/12/24 11:23:28;;;;;;;23.60;5.10;;;14.50;99.90;;;;;;10439536;28;20239;-69
2022/12/24 11:28:33;;;;;;;18.10;4.83;;;14.30;99.90;;;;;;10431918;28;20219;-69
2022/12/24 11:33:50;;;;;;;22.77;5.03;;;14.00;99.90;;;;;;10425190;28;20229;-68
2022/12/24 11:38:58;;;;;;;23.23;5.27;;;13.70;99.90;;;;;;10428682;28;20235;-69
2022/12/24 11:44:06;;;;;;;27.23;4.87;;;13.50;99.90;;;;;;10427954;28;20246;-68
2022/12/24 11:49:21;;;;;;;19.93;5.33;;;13.40;99.90;;;;;;10439560;28;20229;-69
2022/12/24 11:54:36;;;;;;;21.57;4.73;;;13.30;99.90;;;;;;10431842;28;20225;-68
2022/12/24 11:59:43;;;;;;;24.07;5.27;;;13.60;99.90;;;;;;10432267;28;20215;-69
2022/12/24 12:04:48;;;;;;;26.93;4.97;;;14.00;99.90;;;;;;10431873;28;20674;-71
2022/12/24 12:10:34;;;;;;;16.37;4.63;;;14.00;99.90;;;;;;10426849;28;20215;-68
2022/12/24 12:15:41;;;;;;;17.43;4.87;;;13.80;99.90;;;;;;10369504;28;20225;-69
2022/12/24 12:20:41;;;;;;;24.53;4.60;;;13.30;99.90;;;;;;10430539;28;20227;-70
2022/12/24 12:25:54;;;;;;;18.27;4.10;;;13.00;99.90;;;;;;10428036;28;20589;-70
2022/12/24 12:31:09;;;;;;;19.77;4.33;;;13.00;99.90;;;;;;10422706;28;20235;-69
2022/12/24 12:36:12;;;;;;;18.07;4.03;;;13.00;99.90;;;;;;10414511;28;20355;-71
2022/12/24 12:41:55;;;;;;;18.50;3.87;;;13.10;99.90;;;;;;10414013;28;21044;-69
2022/12/24 12:47:22;;;;;;;20.40;4.90;;;13.20;99.90;;;;;;10441313;28;20220;-70
2022/12/24 12:52:47;;;;;;;20.40;4.63;;;13.10;99.90;;;;;;10381965;28;20237;-69
2022/12/24 12:57:50;;;;;;;20.40;4.80;;;13.30;99.90;;;;;;10436765;28;20682;-70
2022/12/24 13:03:00;;;;;;;16.30;3.67;;;13.60;99.90;;;;;;10432969;28;20222;-70
2022/12/24 13:08:03;;;;;;;17.10;4.70;;;13.60;99.90;;;;;;10432735;28;20227;-71
2022/12/24 13:13:25;;;;;;;19.03;4.07;;;13.50;99.90;;;;;;10428992;28;20224;-69
2022/12/24 13:18:52;;;;;;;22.17;4.87;;;13.30;99.90;;;;;;10429241;28;20292;-70
2022/12/24 13:24:21;;;;;;;17.87;4.23;;;13.10;99.90;;;;;;10433202;28;20703;-69
2022/12/24 13:29:34;;;;;;;20.70;4.50;;;12.90;99.90;;;;;;10418101;28;20214;-69
2022/12/24 13:34:36;;;;;;;20.60;4.63;;;12.70;99.90;;;;;;10429453;28;20218;-69
2022/12/24 13:40:05;;;;;;;19.43;4.40;;;12.60;99.90;;;;;;10434803;28;20218;-68
2022/12/24 13:45:27;;;;;;;24.37;4.93;;;12.50;99.90;;;;;;10434254;28;20616;-69
2022/12/24 13:50:36;;;;;;;20.50;4.57;;;12.30;99.90;;;;;;10433188;28;20217;-70
2022/12/24 13:55:36;;;;;;;20.53;4.80;;;12.10;99.90;;;;;;10434251;28;20217;-70
2022/12/24 14:01:01;;;;;;;20.30;4.83;;;12.00;99.90;;;;;;10435593;28;20331;-70
2022/12/24 14:06:08;;;;;;;18.70;4.87;;;12.10;99.90;;;;;;10414553;28;20906;-68
2022/12/24 14:11:15;;;;;;;21.97;4.53;;;12.20;99.90;;;;;;10431631;28;20267;-70
2022/12/24 14:16:21;;;;;;;15.40;4.03;;;12.40;99.90;;;;;;10416606;28;20212;-70
2022/12/24 14:21:28;;;;;;;14.13;4.10;;;12.50;99.90;;;;;;10427488;28;20784;-70
2022/12/24 14:26:35;;;;;;;17.10;4.27;;;12.60;99.90;;;;;;10409604;28;20225;-69
2022/12/24 14:31:35;;;;;;;19.83;4.43;;;12.50;99.90;;;;;;10415432;28;20226;-69
2022/12/24 14:36:37;;;;;;;18.87;4.10;;;12.40;99.90;;;;;;10426564;28;20316;-70
2022/12/24 14:41:55;;;;;;;19.40;4.50;;;12.20;99.90;;;;;;10432214;28;20315;-70
2022/12/24 14:47:04;;;;;;;15.30;3.60;;;12.10;99.90;;;;;;10430256;28;20232;-70
2022/12/24 14:52:26;;;;;;;15.47;4.00;;;12.00;99.90;;;;;;10433109;28;20687;-69
2022/12/24 14:57:27;;;;;;;14.93;3.87;;;11.90;99.90;;;;;;10424700;28;20218;-69
2022/12/24 15:02:40;;;;;;;20.63;3.90;;;11.90;99.90;;;;;;10424227;28;20234;-70
2022/12/24 15:07:48;;;;;;;10.60;2.97;;;11.80;99.90;;;;;;10427288;28;20239;-70
2022/12/24 15:12:49;;;;;;;18.53;3.97;;;11.80;99.90;;;;;;10432373;28;20722;-70
2022/12/24 15:17:50;;;;;;;14.50;3.30;;;11.70;99.90;;;;;;10429308;28;20227;-70
2022/12/24 15:22:53;;;;;;;16.17;3.37;;;11.60;99.90;;;;;;10409430;28;20249;-69
2022/12/24 15:27:54;;;;;;;13.63;3.47;;;11.60;99.90;;;;;;10435836;28;20227;-69
2022/12/24 15:32:56;;;;;;;13.47;3.67;;;11.50;99.90;;;;;;10427229;28;20701;-70
2022/12/24 15:37:58;;;;;;;13.67;3.67;;;11.50;99.90;;;;;;10413947;28;20258;-70
2022/12/24 15:42:59;;;;;;;11.77;3.40;;;11.40;99.90;;;;;;10426429;28;20546;-71
2022/12/24 15:48:07;;;;;;;14.83;3.47;;;11.30;99.90;;;;;;10428523;28;20242;-70
2022/12/24 15:53:21;;;;;;;12.17;3.80;;;11.20;99.90;;;;;;10416919;28;20216;-70
2022/12/24 15:58:27;;;;;;;18.00;4.37;;;11.20;99.90;;;;;;10431898;28;20263;-68
2022/12/24 16:03:28;;;;;;;15.10;3.83;;;11.10;99.90;;;;;;10431081;28;20256;-69
2022/12/24 16:08:40;;;;;;;17.87;3.93;;;11.00;99.90;;;;;;10424429;28;20226;-70
2022/12/24 16:13:50;;;;;;;13.87;3.63;;;11.00;99.90;;;;;;10437213;28;20229;-70
2022/12/24 16:18:57;;;;;;;13.27;3.47;;;11.00;99.90;;;;;;10441761;28;20222;-70
2022/12/24 16:24:05;;;;;;;12.10;3.77;;;11.00;99.90;;;;;;10435404;28;20233;-70
2022/12/24 16:29:07;;;;;;;18.53;4.03;;;10.90;99.90;;;;;;10432624;28;20305;-70
2022/12/24 16:34:13;;;;;;;18.07;3.97;;;10.90;99.90;;;;;;10430495;28;20227;-70
2022/12/24 16:39:23;;;;;;;15.77;3.40;;;10.90;99.90;;;;;;10441459;28;20216;-71
2022/12/24 16:44:24;;;;;;;14.07;3.20;;;10.80;99.90;;;;;;10430892;28;20225;-69
2022/12/24 16:49:26;;;;;;;13.70;3.87;;;10.80;99.90;;;;;;10420258;28;20223;-70
2022/12/24 16:54:28;;;;;;;10.53;4.10;;;10.70;99.90;;;;;;10420841;28;20685;-69
2022/12/24 16:59:29;;;;;;;13.13;4.23;;;10.70;99.90;;;;;;10431077;28;20647;-69
2022/12/24 17:04:33;;;;;;;17.63;5.10;;;10.70;99.90;;;;;;10437835;28;20317;-69
2022/12/24 17:09:34;;;;;;;18.23;4.53;;;10.60;99.90;;;;;;10443465;28;20685;-70
2022/12/24 17:14:36;;;;;;;17.30;4.50;;;10.60;99.90;;;;;;10436503;28;20226;-69
2022/12/24 17:19:37;;;;;;;13.90;4.33;;;10.60;99.90;;;;;;10430974;28;20222;-69
2022/12/24 17:24:38;;;;;;;19.20;5.13;;;10.60;99.90;;;;;;10438181;28;20820;-70
2022/12/24 17:29:41;;;;;;;15.50;4.87;;;10.60;99.90;;;;;;10435332;28;20227;-69
2022/12/24 17:34:42;;;;;;;18.93;5.30;;;10.60;99.90;;;;;;10430946;28;20230;-70
2022/12/24 17:39:42;;;;;;;17.27;5.37;;;10.60;99.90;;;;;;10436775;28;20227;-70
2022/12/24 17:44:43;;;;;;;24.97;5.30;;;10.70;99.90;;;;;;10434287;28;20791;-70
2022/12/24 17:49:44;;;;;;;18.17;4.97;;;10.70;99.90;;;;;;10441373;28;20251;-69
2022/12/24 17:54:44;;;;;;;17.70;5.23;;;10.70;99.90;;;;;;10433189;28;20321;-70
2022/12/24 17:59:47;;;;;;;20.63;5.57;;;10.70;99.90;;;;;;10430531;28;20253;-70
2022/12/24 18:04:48;;;;;;;23.00;6.47;;;10.70;99.90;;;;;;10431313;28;20229;-70
2022/12/24 18:09:48;;;;;;;19.50;5.40;;;10.70;99.90;;;;;;10436811;28;20226;-70
2022/12/24 18:14:49;;;;;;;15.90;5.40;;;10.70;99.90;;;;;;10430829;28;20619;-69
2022/12/24 18:19:49;;;;;;;19.07;5.43;;;10.70;99.90;;;;;;10426751;28;20311;-69
2022/12/24 18:24:50;;;;;;;18.30;6.40;;;10.60;99.90;;;;;;10430235;28;20234;-69
2022/12/24 18:29:51;;;;;;;24.67;6.30;;;10.60;99.90;;;;;;10442688;28;20229;-71
2022/12/24 18:34:51;;;;;;;15.50;5.30;;;10.60;99.90;;;;;;10411474;28;20760;-70
2022/12/24 18:39:52;;;;;;;21.50;5.83;;;10.60;99.90;;;;;;10430027;28;20310;-69
2022/12/24 18:44:52;;;;;;;21.80;5.87;;;10.50;99.90;;;;;;10428722;28;20244;-69
2022/12/24 18:49:59;;;;;;;22.10;6.17;;;10.50;99.90;;;;;;10445868;28;20713;-69
2022/12/24 18:54:59;;;;;;;18.23;6.00;;;10.50;99.90;;;;;;10411312;28;20221;-69
2022/12/24 19:00:03;;;;;;;25.27;6.47;;;10.50;99.90;;;;;;10433860;28;20210;-69
2022/12/24 19:05:04;;;;;;;17.07;5.67;;;10.50;99.90;;;;;;10429999;28;20321;-68
2022/12/24 19:10:05;;;;;;;18.20;5.80;;;10.60;99.90;;;;;;10410463;28;20306;-69
2022/12/24 19:15:06;;;;;;;18.77;5.97;;;10.50;99.90;;;;;;10435926;28;20226;-71
2022/12/24 19:20:07;;;;;;;25.53;6.40;;;10.50;99.90;;;;;;10432032;28;20214;-69
2022/12/24 19:25:08;;;;;;;21.50;6.90;;;10.50;99.90;;;;;;10432959;28;20218;-70
2022/12/24 19:30:09;;;;;;;18.87;5.43;;;10.50;99.90;;;;;;10432031;28;20692;-70
2022/12/24 19:35:10;;;;;;;19.83;6.13;;;10.50;99.90;;;;;;10426406;28;20222;-70
2022/12/24 19:40:11;;;;;;;17.67;5.60;;;10.50;99.90;;;;;;10430001;28;20220;-71
2022/12/24 19:45:12;;;;;;;16.40;5.40;;;10.50;99.90;;;;;;10425383;28;20190;-70
2022/12/24 19:50:14;;;;;;;20.33;5.50;;;10.50;99.90;;;;;;10430970;28;20227;-70
2022/12/24 19:55:18;;;;;;;18.00;5.10;;;10.50;99.90;;;;;;10435814;28;20195;-70
2022/12/24 20:00:19;;;;;;;19.10;5.57;;;10.60;99.90;;;;;;10412357;28;20214;-70
2022/12/24 20:05:20;;;;;;;17.50;5.30;;;10.70;99.90;;;;;;10421558;28;20189;-68
2022/12/24 20:10:20;;;;;;;19.17;5.63;;;10.70;99.90;;;;;;10421769;28;20386;-69
2022/12/24 20:15:21;;;;;;;18.93;5.20;;;10.70;99.90;;;;;;10431320;28;20198;-70
2022/12/24 20:20:21;;;;;;;19.97;5.30;;;10.80;99.90;;;;;;10429686;28;20621;-69
2022/12/24 20:25:23;;;;;;;20.73;5.87;;;10.70;99.90;;;;;;10422436;28;20273;-70
2022/12/24 20:30:23;;;;;;;17.83;5.47;;;10.70;99.90;;;;;;10420572;28;20300;-71
2022/12/24 20:35:24;;;;;;;24.83;5.77;;;10.70;99.90;;;;;;10413520;28;20294;-70
2022/12/24 20:40:25;;;;;;;18.23;5.37;;;10.70;99.90;;;;;;10422626;28;20218;-70
2022/12/24 20:45:25;;;;;;;20.53;5.93;;;10.60;99.90;;;;;;10431005;28;20191;-69
2022/12/24 20:50:26;;;;;;;20.07;5.80;;;10.70;99.90;;;;;;10422276;28;20362;-69
2022/12/24 20:55:27;;;;;;;20.67;5.97;;;10.60;99.90;;;;;;10432909;28;20186;-69
2022/12/24 21:00:27;;;;;;;17.63;5.77;;;10.60;99.90;;;;;;10438144;28;20235;-69
2022/12/24 21:05:28;;;;;;;21.60;6.03;;;10.60;99.90;;;;;;10437436;28;20219;-69
2022/12/24 21:10:28;;;;;;;18.53;5.10;;;10.60;99.90;;;;;;10411447;28;20342;-68
2022/12/24 21:15:38;;;;;;;22.70;6.30;;;10.60;99.90;;;;;;10437748;28;20189;-69
2022/12/24 21:20:40;;;;;;;14.17;4.60;;;10.60;99.90;;;;;;10440079;28;20571;-70
2022/12/24 21:25:41;;;;;;;20.47;5.93;;;10.60;99.90;;;;;;10447366;28;20217;-70
2022/12/24 21:30:41;;;;;;;17.73;5.13;;;10.60;99.90;;;;;;10433514;28;20210;-69
2022/12/24 21:35:42;;;;;;;21.00;5.40;;;10.60;99.90;;;;;;10431034;28;20214;-70
2022/12/24 21:40:42;;;;;;;13.80;4.53;;;10.60;99.90;;;;;;10416565;28;20269;-70
2022/12/24 21:45:44;;;;;;;14.53;5.20;;;10.60;99.90;;;;;;10430958;28;20280;-70
2022/12/24 21:50:55;;;;;;;17.20;4.87;;;10.60;99.90;;;;;;10449956;28;20253;-69
2022/12/24 21:55:55;;;;;;;19.50;5.23;;;10.50;99.90;;;;;;10431870;28;20218;-70
2022/12/24 22:00:56;;;;;;;16.90;4.90;;;10.40;99.90;;;;;;10436187;28;20229;-69
2022/12/24 22:06:00;;;;;;;19.90;5.13;;;10.40;99.90;;;;;;10431715;28;20595;-69
2022/12/24 22:11:46;;;;;;;19.10;5.00;;;10.40;99.90;;;;;;10437737;28;20297;-69
2022/12/24 22:16:29;;;;;;;18.20;5.40;;;10.40;99.90;;;;;;10427092;28;20699;-69
2022/12/24 22:21:30;;;;;;;20.20;5.37;;;10.30;99.90;;;;;;10433728;28;20229;-69
2022/12/24 22:26:31;;;;;;;18.30;5.17;;;10.30;99.90;;;;;;10426986;28;20232;-69
2022/12/24 22:31:31;;;;;;;18.70;4.90;;;10.30;99.90;;;;;;10433359;28;20259;-68
2022/12/24 22:36:32;;;;;;;15.57;5.10;;;10.30;99.90;;;;;;10441472;28;20266;-69
2022/12/24 22:41:33;;;;;;;18.27;4.83;;;10.20;99.90;;;;;;10432655;28;20899;-69
2022/12/24 22:46:34;;;;;;;18.37;5.27;;;10.20;99.90;;;;;;10426935;28;20214;-68
2022/12/24 22:51:35;;;;;;;19.43;5.00;;;10.20;99.90;;;;;;10442060;28;20225;-68
2022/12/24 22:56:36;;;;;;;16.57;5.03;;;10.20;99.90;;;;;;10425666;28;20278;-69
2022/12/24 23:01:39;;;;;;;17.03;4.90;;;10.30;99.90;;;;;;10437222;28;20225;-69
2022/12/24 23:06:40;;;;;;;19.27;5.10;;;10.30;99.90;;;;;;10427171;28;20218;-69
2022/12/24 23:11:41;;;;;;;13.67;5.00;;;10.40;99.90;;;;;;10432925;28;20257;-69
2022/12/24 23:16:42;;;;;;;13.40;4.77;;;10.50;99.90;;;;;;10432695;28;20705;-69
2022/12/24 23:21:43;;;;;;;16.77;4.87;;;10.60;99.90;;;;;;10413416;28;20218;-70
2022/12/24 23:26:43;;;;;;;13.70;4.60;;;10.60;99.90;;;;;;10434772;28;20261;-69
2022/12/24 23:31:44;;;;;;;18.67;4.93;;;10.70;99.90;;;;;;10428975;28;20218;-70
2022/12/24 23:36:44;;;;;;;13.63;5.00;;;10.80;99.90;;;;;;10426342;28;20362;-69
2022/12/24 23:41:45;;;;;;;13.50;5.07;;;10.80;99.90;;;;;;10429046;28;20226;-71
2022/12/24 23:46:45;;;;;;;10.93;4.87;;;10.80;99.90;;;;;;10426270;28;20283;-69
2022/12/24 23:51:46;;;;;;;13.93;4.87;;;10.80;99.90;;;;;;10428405;28;20309;-70
2022/12/24 23:56:46;;;;;;;12.73;5.10;;;10.70;99.90;;;;;;10427359;28;20218;-69
